Time;durP1;ratioP1;P1;durP2;ratioP2;P2;SDS_P1;SDS_P2;PMS_P1;PMS_P2;Temp;Humidity;BMP_temperature;BMP_pressure;BME280_temperature;BME280_humidity;BME280_pressure;Samples;Min_cycle;Max_cycle;Signal;HPM_P1;HPM_P2
2022/06/05 00:01:19;;;;;;;24.73;22.23;;;13.00;99.90;;;;;;8397239;28;20209;-68
2022/06/05 00:05:29;;;;;;;17.80;15.87;;;13.00;99.90;;;;;;8401046;28;20245;-68
2022/06/05 00:09:39;;;;;;;14.60;13.10;;;12.80;99.90;;;;;;8408320;28;20200;-67
2022/06/05 00:13:45;;;;;;;16.37;14.47;;;12.50;99.90;;;;;;8399650;28;20236;-68
2022/06/05 00:17:46;;;;;;;18.73;16.73;;;12.40;99.90;;;;;;8397073;28;20195;-70
2022/06/05 00:21:47;;;;;;;19.47;17.37;;;12.30;99.90;;;;;;8400020;28;20241;-72
2022/06/05 00:26:07;;;;;;;18.03;16.23;;;12.30;99.90;;;;;;8398649;28;20179;-68
2022/06/05 00:30:21;;;;;;;20.73;18.63;;;12.20;99.90;;;;;;8396966;28;20210;-67
2022/06/05 00:34:22;;;;;;;22.13;19.80;;;12.10;99.90;;;;;;8398883;28;20275;-66
2022/06/05 00:38:49;;;;;;;17.73;15.93;;;12.00;99.90;;;;;;8399230;28;20182;-67
2022/06/05 00:42:50;;;;;;;22.07;19.77;;;11.90;99.90;;;;;;8396820;28;20208;-67
2022/06/05 00:46:52;;;;;;;19.40;17.50;;;11.90;99.90;;;;;;8396155;28;20190;-68
2022/06/05 00:50:53;;;;;;;24.07;21.57;;;11.90;99.90;;;;;;8397237;28;20189;-67
2022/06/05 00:54:54;;;;;;;20.77;18.67;;;11.90;99.90;;;;;;8396124;28;20217;-67
2022/06/05 00:58:56;;;;;;;19.70;17.70;;;11.80;99.90;;;;;;8400807;28;20185;-67
2022/06/05 01:02:59;;;;;;;18.07;16.23;;;11.80;99.90;;;;;;8399035;28;20553;-66
2022/06/05 01:06:59;;;;;;;19.53;17.63;;;11.70;99.90;;;;;;8396646;28;20186;-66
2022/06/05 01:11:22;;;;;;;18.83;16.97;;;11.60;99.90;;;;;;8397289;28;20253;-67
2022/06/05 01:15:33;;;;;;;18.73;16.83;;;11.60;99.90;;;;;;8397382;28;20250;-70
2022/06/05 01:19:42;;;;;;;19.43;17.53;;;11.60;99.90;;;;;;8396567;28;20475;-67
2022/06/05 01:24:13;;;;;;;20.17;18.10;;;11.60;99.90;;;;;;8395043;28;20200;-66
2022/06/05 01:28:19;;;;;;;20.17;18.17;;;11.50;99.90;;;;;;8395152;28;20217;-67
2022/06/05 01:32:35;;;;;;;16.57;14.77;;;11.50;99.90;;;;;;8393379;28;20215;-68
2022/06/05 01:36:45;;;;;;;15.83;14.33;;;11.40;99.90;;;;;;8396760;28;20181;-66
2022/06/05 01:40:51;;;;;;;15.93;14.33;;;11.20;99.90;;;;;;8398149;28;20286;-66
2022/06/05 01:44:58;;;;;;;16.07;14.53;;;11.10;99.90;;;;;;8388633;28;20191;-66
2022/06/05 01:49:09;;;;;;;14.60;13.10;;;10.90;99.90;;;;;;8393777;28;20213;-67
2022/06/05 01:53:21;;;;;;;15.43;13.93;;;10.80;99.90;;;;;;8402091;28;20278;-66
2022/06/05 01:57:23;;;;;;;15.47;13.97;;;10.80;99.90;;;;;;8396739;28;20185;-66
2022/06/05 02:01:44;;;;;;;15.87;14.37;;;10.80;99.90;;;;;;8402308;28;21260;-66
2022/06/05 02:05:50;;;;;;;15.53;14.03;;;10.70;99.90;;;;;;8398658;28;20184;-66
2022/06/05 02:10:09;;;;;;;14.43;13.13;;;10.60;99.90;;;;;;8397374;28;20247;-67
2022/06/05 02:14:10;;;;;;;15.23;13.73;;;10.50;99.90;;;;;;8407946;28;20402;-66
2022/06/05 02:18:12;;;;;;;13.70;12.40;;;10.40;99.90;;;;;;8400558;28;20248;-66
2022/06/05 02:22:26;;;;;;;14.30;12.90;;;10.30;99.90;;;;;;8404235;28;20210;-68
2022/06/05 02:26:27;;;;;;;14.40;12.90;;;10.30;99.90;;;;;;8404820;28;20200;-66
2022/06/05 02:30:39;;;;;;;13.63;12.33;;;10.30;99.90;;;;;;8400698;28;20185;-67
2022/06/05 02:35:13;;;;;;;13.00;11.83;;;10.40;99.90;;;;;;8404542;28;20174;-66
2022/06/05 02:39:41;;;;;;;12.60;11.40;;;10.30;99.90;;;;;;8411129;28;20192;-66
2022/06/05 02:48:31;;;;;;;13.93;12.63;;;10.20;99.90;;;;;;8403164;28;20566;-66
2022/06/05 02:52:32;;;;;;;13.10;11.83;;;10.20;99.90;;;;;;8400009;28;20184;-66
2022/06/05 02:56:33;;;;;;;13.43;12.17;;;10.00;99.90;;;;;;8403693;28;20227;-67
2022/06/05 03:00:36;;;;;;;14.70;13.20;;;9.90;99.90;;;;;;8400258;28;20192;-66
2022/06/05 03:04:37;;;;;;;13.80;12.57;;;9.90;99.90;;;;;;8403128;28;20192;-64
2022/06/05 03:08:38;;;;;;;18.67;16.67;;;10.00;99.90;;;;;;8404094;28;20178;-64
2022/06/05 03:12:39;;;;;;;15.23;13.80;;;10.10;99.90;;;;;;8406928;28;20180;-66
2022/06/05 03:16:40;;;;;;;13.00;11.73;;;10.30;99.90;;;;;;8399482;28;20282;-65
2022/06/05 03:20:42;;;;;;;12.37;11.27;;;10.40;99.90;;;;;;8401099;28;20201;-66
2022/06/05 03:24:42;;;;;;;14.50;13.00;;;10.40;99.90;;;;;;8404312;28;20182;-65
2022/06/05 03:28:43;;;;;;;19.13;17.10;;;10.50;99.90;;;;;;8398273;28;20395;-65
2022/06/05 03:32:46;;;;;;;29.57;26.03;;;10.60;99.90;;;;;;8401213;28;20230;-67
2022/06/05 03:36:47;;;;;;;27.20;22.83;;;10.70;99.90;;;;;;8404595;28;20504;-67
2022/06/05 03:40:48;;;;;;;29.97;25.03;;;10.90;99.90;;;;;;8405424;28;20239;-66
2022/06/05 03:44:49;;;;;;;23.87;21.37;;;11.00;99.90;;;;;;8402630;28;20261;-66
2022/06/05 03:48:49;;;;;;;22.67;20.27;;;11.10;99.90;;;;;;8399453;28;20177;-66
2022/06/05 03:52:50;;;;;;;23.80;21.40;;;11.30;99.90;;;;;;8399051;28;20186;-66
2022/06/05 03:56:51;;;;;;;23.50;21.10;;;11.40;99.90;;;;;;8399540;28;20227;-68
2022/06/05 04:00:52;;;;;;;24.10;21.53;;;11.40;99.90;;;;;;8400445;28;20214;-67
2022/06/05 04:04:53;;;;;;;26.53;23.73;;;11.50;99.90;;;;;;8400104;28;20227;-68
2022/06/05 04:08:59;;;;;;;23.43;21.03;;;11.80;99.90;;;;;;8399865;28;20221;-67
2022/06/05 04:13:00;;;;;;;21.80;19.50;;;12.10;99.90;;;;;;8399537;28;20241;-66
2022/06/05 04:17:01;;;;;;;19.73;17.87;;;12.40;99.90;;;;;;8395660;28;20264;-66
2022/06/05 04:21:16;;;;;;;18.97;17.07;;;12.50;99.90;;;;;;8403295;28;20192;-67
2022/06/05 04:25:18;;;;;;;17.70;16.00;;;12.70;99.90;;;;;;8398556;28;20188;-66
2022/06/05 04:29:19;;;;;;;15.80;14.20;;;13.00;99.90;;;;;;8400536;28;20273;-66
2022/06/05 04:33:20;;;;;;;14.70;13.33;;;13.30;99.90;;;;;;8397528;28;20215;-67
2022/06/05 04:37:21;;;;;;;12.50;11.43;;;13.70;99.90;;;;;;8404242;28;20218;-66
2022/06/05 04:41:24;;;;;;;11.57;10.57;;;13.90;99.90;;;;;;8395206;28;20201;-71
2022/06/05 04:45:25;;;;;;;9.87;9.00;;;14.50;99.90;;;;;;8397070;28;20174;-68
2022/06/05 04:49:26;;;;;;;11.50;10.50;;;14.90;99.90;;;;;;8395665;28;20888;-67
2022/06/05 04:53:27;;;;;;;10.97;10.03;;;15.10;99.90;;;;;;8397331;28;20177;-67
2022/06/05 04:57:27;;;;;;;12.57;11.37;;;15.30;99.90;;;;;;8400263;28;20181;-69
2022/06/05 05:01:31;;;;;;;11.67;10.57;;;15.50;99.90;;;;;;8399653;28;20200;-69
2022/06/05 05:05:34;;;;;;;12.10;11.00;;;15.80;99.90;;;;;;8402812;28;20171;-68
2022/06/05 05:09:35;;;;;;;10.60;9.67;;;16.10;99.90;;;;;;8397409;28;20177;-69
2022/06/05 05:13:36;;;;;;;12.57;10.83;;;16.30;99.90;;;;;;8396614;28;20183;-69
2022/06/05 05:17:37;;;;;;;12.63;11.23;;;16.50;3.60;;;;;;8393937;28;20184;-68
2022/06/05 05:21:38;;;;;;;14.77;13.27;;;16.80;1.00;;;;;;8397397;28;20205;-70
2022/06/05 05:25:39;;;;;;;13.27;11.93;;;17.00;1.00;;;;;;8401560;28;20538;-71
2022/06/05 05:29:40;;;;;;;13.17;11.83;;;17.10;1.00;;;;;;8392481;28;20204;-67
2022/06/05 05:33:41;;;;;;;11.57;10.47;;;17.20;1.00;;;;;;8393866;28;20197;-70
2022/06/05 05:37:42;;;;;;;12.83;11.60;;;17.40;1.00;;;;;;8392967;28;20279;-66
2022/06/05 05:46:11;;;;;;;17.73;15.83;;;17.90;99.90;;;;;;8402023;28;20231;-67
2022/06/05 05:50:17;;;;;;;18.13;16.30;;;18.30;99.90;;;;;;8406374;28;20213;-67
2022/06/05 05:54:18;;;;;;;20.00;17.67;;;18.70;99.90;;;;;;8401131;28;20173;-68
2022/06/05 05:58:19;;;;;;;28.60;24.50;;;18.90;99.90;;;;;;8402209;28;20186;-67
2022/06/05 06:02:23;;;;;;;27.83;24.43;;;18.70;99.90;;;;;;8404042;28;20210;-66
2022/06/05 06:06:31;;;;;;;28.23;25.33;;;18.20;1.00;;;;;;8401194;28;20234;-67
2022/06/05 06:10:32;;;;;;;28.67;25.57;;;17.80;99.90;;;;;;8405413;28;20280;-66
2022/06/05 06:14:36;;;;;;;24.80;22.20;;;17.80;99.90;;;;;;8400314;28;20189;-63
2022/06/05 06:18:37;;;;;;;22.73;20.53;;;17.80;99.90;;;;;;8408018;28;20177;-64
2022/06/05 06:22:37;;;;;;;22.83;19.90;;;18.10;99.90;;;;;;8401254;28;20307;-62
2022/06/05 06:26:40;;;;;;;21.73;19.53;;;18.20;99.90;;;;;;8414093;28;20218;-62
2022/06/05 06:30:41;;;;;;;18.93;17.03;;;18.30;99.90;;;;;;8402409;28;20186;-71
2022/06/05 06:34:42;;;;;;;15.90;14.40;;;18.40;57.90;;;;;;8401450;28;20200;-65
2022/06/05 06:38:43;;;;;;;13.60;12.40;;;18.60;99.90;;;;;;8406772;28;20185;-63
2022/06/05 06:42:43;;;;;;;13.10;11.93;;;18.90;99.90;;;;;;8401344;28;20205;-61
2022/06/05 06:46:44;;;;;;;11.53;10.40;;;19.20;99.90;;;;;;8408860;28;20176;-62
2022/06/05 06:50:45;;;;;;;10.17;9.27;;;19.50;99.90;;;;;;8401584;28;20184;-61
2022/06/05 06:54:48;;;;;;;10.67;9.57;;;19.70;99.90;;;;;;8400933;28;20191;-64
2022/06/05 06:58:49;;;;;;;10.40;9.47;;;19.90;1.00;;;;;;8392913;28;20181;-65
2022/06/05 07:02:50;;;;;;;8.97;8.13;;;20.20;99.90;;;;;;8400654;28;20238;-62
2022/06/05 07:06:51;;;;;;;8.13;7.30;;;20.40;99.90;;;;;;8399705;28;20185;-65
2022/06/05 07:10:51;;;;;;;8.13;7.40;;;20.60;61.50;;;;;;8415417;27;20184;-64
2022/06/05 07:14:52;;;;;;;8.97;8.07;;;20.80;99.90;;;;;;8393976;28;20188;-62
2022/06/05 07:18:53;;;;;;;7.73;7.03;;;20.90;1.00;;;;;;8396673;28;20212;-62
2022/06/05 07:22:54;;;;;;;8.77;7.97;;;20.90;1.00;;;;;;8396283;28;20205;-62
2022/06/05 07:26:54;;;;;;;7.53;6.80;;;20.90;90.90;;;;;;8397029;28;20222;-66
2022/06/05 07:30:56;;;;;;;7.40;6.70;;;21.20;1.00;;;;;;8393832;28;20183;-65
2022/06/05 07:34:57;;;;;;;6.87;6.27;;;21.30;1.00;;;;;;8398159;28;20584;-62
2022/06/05 07:38:59;;;;;;;7.50;6.70;;;21.50;1.00;;;;;;8408875;28;20198;-61
2022/06/05 07:43:00;;;;;;;9.47;7.17;;;21.60;1.00;;;;;;8402987;28;20244;-62
2022/06/05 07:47:05;;;;;;;8.00;7.20;;;21.80;1.00;;;;;;8398668;28;20214;-64
2022/06/05 07:55:37;;;;;;;7.20;6.60;;;22.00;99.90;;;;;;8397099;28;20276;-63
2022/06/05 07:59:41;;;;;;;7.67;7.07;;;22.20;99.90;;;;;;8401446;28;20192;-63
2022/06/05 08:03:42;;;;;;;7.00;6.40;;;22.30;99.90;;;;;;8395204;28;20204;-63
2022/06/05 08:07:42;;;;;;;8.10;6.90;;;22.40;99.90;;;;;;8397624;28;20542;-62
2022/06/05 08:11:45;;;;;;;7.33;6.73;;;22.60;99.90;;;;;;8398758;28;20271;-62
2022/06/05 08:15:46;;;;;;;7.40;6.17;;;22.80;99.90;;;;;;8398312;28;20240;-63
2022/06/05 08:19:48;;;;;;;7.97;5.97;;;22.90;99.90;;;;;;8399156;28;20185;-64
2022/06/05 08:23:49;;;;;;;7.03;6.40;;;23.00;99.90;;;;;;8400900;28;20264;-63
2022/06/05 08:27:50;;;;;;;6.77;6.00;;;23.10;99.90;;;;;;8410162;27;20224;-68
2022/06/05 08:31:51;;;;;;;6.03;5.43;;;23.20;99.90;;;;;;8396002;28;20184;-63
2022/06/05 08:35:52;;;;;;;5.70;5.23;;;23.30;99.90;;;;;;8391096;28;20184;-64
2022/06/05 08:44:18;;;;;;;5.50;5.00;;;23.60;99.90;;;;;;8395187;28;20236;-61
2022/06/05 08:48:27;;;;;;;5.57;5.07;;;23.80;99.90;;;;;;8402838;28;20482;-64
2022/06/05 08:52:48;;;;;;;5.87;4.70;;;23.90;99.90;;;;;;8411891;28;20189;-62
2022/06/05 08:57:03;;;;;;;5.57;5.07;;;23.90;99.90;;;;;;8400232;28;20271;-60
2022/06/05 09:01:21;;;;;;;5.57;5.07;;;24.10;92.40;;;;;;8397073;28;20257;-61
2022/06/05 09:05:28;;;;;;;5.10;4.70;;;24.10;78.20;;;;;;8394936;28;20181;-64
2022/06/05 09:09:40;;;;;;;6.20;5.60;;;24.20;99.90;;;;;;8397659;28;20173;-66
2022/06/05 09:13:52;;;;;;;7.17;6.23;;;24.30;99.90;;;;;;8389568;28;20185;-62
2022/06/05 09:17:56;;;;;;;6.30;5.80;;;24.30;91.60;;;;;;8397986;28;20193;-61
2022/06/05 09:22:15;;;;;;;5.10;4.60;;;24.40;99.90;;;;;;8400608;28;20208;-65
2022/06/05 09:26:22;;;;;;;6.10;5.13;;;24.60;14.30;;;;;;8403727;28;20253;-63
2022/06/05 09:30:28;;;;;;;4.13;3.83;;;24.60;9.60;;;;;;8404755;28;20256;-62
2022/06/05 09:34:47;;;;;;;5.03;4.53;;;24.60;3.00;;;;;;8412701;28;20177;-65
2022/06/05 09:39:17;;;;;;;8.30;4.60;;;24.80;1.00;;;;;;8407041;28;20180;-65
2022/06/05 09:43:45;;;;;;;4.80;4.13;;;24.90;1.00;;;;;;8397877;28;20521;-66
2022/06/05 09:48:07;;;;;;;3.95;3.53;;;25.00;1.00;;;;;;8406945;28;20242;-63
2022/06/05 09:52:18;;;;;;;3.93;3.60;;;25.20;1.00;;;;;;8402805;28;20186;-66
2022/06/05 09:58:24;;;;;;;3.10;2.80;;;25.40;1.00;;;;;;8400642;28;20611;-69
2022/06/05 10:01:18;;;;;;;4.53;3.25;;;25.30;1.00;;;;;;8397430;28;20260;-61
2022/06/05 10:05:32;;;;;;;3.88;3.47;;;25.50;1.00;;;;;;8407622;28;20184;-62
2022/06/05 10:09:40;;;;;;;4.18;3.50;;;25.50;1.00;;;;;;8396749;28;20231;-63
2022/06/05 10:13:56;;;;;;;3.30;3.00;;;25.40;1.00;;;;;;8401381;28;20308;-64
2022/06/05 10:18:03;;;;;;;3.47;3.17;;;25.50;1.00;;;;;;8405359;28;20181;-63
2022/06/05 10:22:20;;;;;;;5.93;3.50;;;25.50;1.00;;;;;;8400111;28;20295;-67
2022/06/05 10:26:37;;;;;;;3.08;2.88;;;25.50;1.00;;;;;;8408774;28;20196;-65
2022/06/05 10:30:56;;;;;;;3.22;2.92;;;25.60;1.00;;;;;;8403289;28;20178;-64
2022/06/05 10:35:19;;;;;;;6.57;3.43;;;25.70;1.00;;;;;;8407903;28;20184;-63
2022/06/05 10:39:46;;;;;;;3.50;3.20;;;25.70;1.00;;;;;;8403332;28;20177;-64
2022/06/05 10:44:15;;;;;;;3.20;2.90;;;25.80;1.00;;;;;;8398655;28;20296;-63
2022/06/05 10:48:34;;;;;;;3.92;2.80;;;26.00;1.00;;;;;;8392946;28;20276;-67
2022/06/05 10:53:08;;;;;;;4.20;2.90;;;26.20;1.00;;;;;;8402259;28;20185;-63
2022/06/05 10:57:16;;;;;;;3.15;2.88;;;26.30;1.00;;;;;;8394690;28;20189;-62
2022/06/05 11:01:32;;;;;;;3.22;2.92;;;26.40;1.00;;;;;;8399227;28;20201;-65
2022/06/05 11:06:10;;;;;;;4.38;3.10;;;26.30;1.00;;;;;;8402282;28;20181;-65
2022/06/05 11:10:14;;;;;;;8.93;3.45;;;26.30;1.00;;;;;;8400498;28;20181;-69
2022/06/05 11:14:48;;;;;;;3.22;2.90;;;26.30;1.00;;;;;;8399852;28;20271;-68
2022/06/05 11:19:08;;;;;;;3.85;2.72;;;26.40;1.00;;;;;;8406563;28;20169;-70
2022/06/05 11:23:17;;;;;;;3.85;2.65;;;26.50;1.00;;;;;;8403443;28;20208;-67
2022/06/05 11:28:06;;;;;;;3.78;3.25;;;26.60;1.00;;;;;;8405754;28;20215;-67
2022/06/05 11:32:25;;;;;;;2.80;2.60;;;26.60;1.00;;;;;;8395990;28;20188;-67
2022/06/05 11:36:41;;;;;;;6.63;2.92;;;26.50;1.00;;;;;;8411354;28;20183;-68
2022/06/05 11:41:10;;;;;;;2.60;2.40;;;26.60;1.00;;;;;;8408002;28;20890;-67
2022/06/05 11:45:47;;;;;;;3.65;2.53;;;26.70;1.00;;;;;;8407899;28;20192;-66
2022/06/05 11:50:12;;;;;;;4.63;3.28;;;26.90;1.00;;;;;;8396732;28;20277;-68
2022/06/05 11:54:20;;;;;;;4.45;2.80;;;26.80;1.00;;;;;;8401854;28;20195;-66
2022/06/05 11:58:37;;;;;;;3.67;3.03;;;26.90;1.00;;;;;;8409647;28;20192;-67
2022/06/05 12:02:54;;;;;;;3.38;3.08;;;26.90;1.00;;;;;;8401332;28;20219;-68
2022/06/05 12:06:59;;;;;;;3.70;3.30;;;27.00;1.00;;;;;;8403223;28;20185;-67
2022/06/05 12:11:08;;;;;;;3.50;3.20;;;27.00;1.00;;;;;;8404665;28;20180;-67
2022/06/05 12:15:56;;;;;;;3.90;3.33;;;26.90;1.00;;;;;;8414959;28;20185;-67
2022/06/05 12:20:10;;;;;;;4.13;3.00;;;26.90;1.00;;;;;;8372719;28;20197;-67
2022/06/05 12:24:20;;;;;;;3.58;3.25;;;27.00;1.00;;;;;;8408111;28;20212;-65
2022/06/05 12:28:45;;;;;;;4.68;3.80;;;27.10;1.00;;;;;;8408385;28;20213;-67
2022/06/05 12:33:16;;;;;;;3.63;3.30;;;27.20;1.00;;;;;;8410857;28;20257;-69
2022/06/05 12:37:32;;;;;;;3.42;3.13;;;27.30;1.00;;;;;;8399436;28;20296;-70
2022/06/05 12:42:05;;;;;;;10.98;3.58;;;27.20;1.00;;;;;;8396821;28;20374;-66
2022/06/05 12:46:29;;;;;;;4.28;3.05;;;27.30;1.00;;;;;;8395622;28;20217;-66
2022/06/05 12:50:49;;;;;;;3.75;3.45;;;27.20;1.00;;;;;;8403325;28;20180;-69
2022/06/05 12:55:21;;;;;;;3.47;3.17;;;27.20;1.00;;;;;;8397875;28;20293;-66
2022/06/05 13:00:13;;;;;;;2.80;2.60;;;27.30;1.00;;;;;;8406916;28;20264;-70
2022/06/05 13:04:44;;;;;;;3.70;3.40;;;27.20;1.00;;;;;;8398434;28;20362;-68
2022/06/05 13:08:47;;;;;;;3.78;3.47;;;27.40;1.00;;;;;;8406030;28;20193;-70
2022/06/05 13:13:23;;;;;;;3.70;3.40;;;27.60;1.00;;;;;;8403191;28;20176;-65
2022/06/05 13:17:39;;;;;;;3.83;3.45;;;27.70;1.00;;;;;;8389104;28;20185;-67
2022/06/05 13:21:55;;;;;;;3.17;2.88;;;27.50;1.00;;;;;;8403684;28;20263;-67
2022/06/05 13:26:08;;;;;;;3.45;3.15;;;27.40;1.00;;;;;;8399159;28;20184;-65
2022/06/05 13:30:11;;;;;;;3.50;3.20;;;27.40;1.00;;;;;;8398042;28;20201;-65
2022/06/05 13:34:31;;;;;;;5.75;3.50;;;27.50;1.00;;;;;;8403119;28;20398;-66
2022/06/05 13:38:51;;;;;;;3.97;3.55;;;27.40;1.00;;;;;;8403339;28;20181;-68
2022/06/05 13:42:52;;;;;;;5.53;5.00;;;27.40;1.00;;;;;;8415335;28;20304;-68
2022/06/05 13:47:12;;;;;;;3.40;3.10;;;27.40;1.00;;;;;;8403233;28;20272;-68
2022/06/05 13:51:28;;;;;;;3.35;3.05;;;27.50;1.00;;;;;;8394203;28;20183;-65
2022/06/05 13:56:09;;;;;;;3.97;3.22;;;27.50;1.00;;;;;;8406925;28;20213;-65
2022/06/05 14:00:36;;;;;;;4.22;3.40;;;27.50;1.00;;;;;;8309592;28;20548;-66
2022/06/05 14:04:57;;;;;;;3.40;2.95;;;27.60;1.00;;;;;;8403007;28;20215;-70
2022/06/05 14:09:00;;;;;;;3.38;3.10;;;27.60;1.00;;;;;;8402486;28;20183;-68
2022/06/05 14:13:07;;;;;;;5.55;2.92;;;27.70;1.00;;;;;;8413712;28;20238;-66
2022/06/05 14:17:25;;;;;;;3.53;3.05;;;27.70;1.00;;;;;;8401309;28;20245;-64
2022/06/05 14:21:31;;;;;;;3.30;3.00;;;27.60;1.00;;;;;;8411249;28;20610;-68
2022/06/05 14:25:44;;;;;;;3.28;2.97;;;27.70;1.00;;;;;;8403731;28;20568;-67
2022/06/05 14:29:47;;;;;;;3.90;3.33;;;27.70;1.00;;;;;;8406563;28;20216;-66
2022/06/05 14:33:57;;;;;;;3.15;2.78;;;27.80;1.00;;;;;;8404018;28;20178;-66
2022/06/05 14:38:07;;;;;;;4.93;3.08;;;27.70;1.00;;;;;;8403629;28;20181;-68
2022/06/05 14:42:24;;;;;;;3.50;3.10;;;27.60;1.00;;;;;;8404324;28;20208;-67
2022/06/05 14:46:37;;;;;;;3.67;3.28;;;27.60;1.00;;;;;;8409434;28;20512;-66
2022/06/05 14:50:46;;;;;;;3.88;3.22;;;27.70;1.00;;;;;;8416656;28;20180;-64
2022/06/05 14:59:58;;;;;;;3.60;3.30;;;27.90;1.00;;;;;;8409609;28;20196;-67
2022/06/05 15:04:07;;;;;;;3.63;3.33;;;27.80;1.00;;;;;;8406607;28;20341;-67
2022/06/05 15:08:44;;;;;;;3.60;3.30;;;27.70;1.00;;;;;;8408087;28;20185;-66
2022/06/05 15:12:49;;;;;;;3.67;3.28;;;27.50;1.00;;;;;;8393791;28;20374;-65
2022/06/05 15:16:59;;;;;;;3.38;3.08;;;27.50;1.00;;;;;;8399515;28;20184;-66
2022/06/05 15:21:22;;;;;;;6.10;3.22;;;27.50;1.00;;;;;;8413065;28;20215;-67
2022/06/05 15:25:33;;;;;;;2.90;2.70;;;27.50;1.00;;;;;;8403769;28;20177;-64
2022/06/05 15:29:53;;;;;;;5.85;3.08;;;27.50;1.00;;;;;;8402255;28;20285;-66
2022/06/05 15:34:11;;;;;;;2.85;2.63;;;27.30;1.00;;;;;;8404115;28;20483;-67
2022/06/05 15:38:36;;;;;;;4.15;2.95;;;27.10;1.00;;;;;;8403226;28;20192;-66
2022/06/05 15:42:41;;;;;;;4.07;3.20;;;27.10;1.00;;;;;;8400139;28;20204;-66
2022/06/05 15:47:06;;;;;;;3.13;2.92;;;27.00;1.00;;;;;;8407680;28;20177;-68
2022/06/05 15:51:07;;;;;;;4.43;2.65;;;27.00;1.00;;;;;;8402471;28;20265;-66
2022/06/05 15:55:23;;;;;;;2.78;2.58;;;27.10;1.00;;;;;;8412464;28;20189;-66
2022/06/05 15:59:29;;;;;;;3.75;2.97;;;27.20;1.00;;;;;;8404959;28;20213;-68
2022/06/05 16:04:00;;;;;;;2.97;2.78;;;27.20;1.00;;;;;;8402393;28;20204;-65
2022/06/05 16:08:25;;;;;;;5.10;2.90;;;27.20;1.00;;;;;;8397304;28;20219;-65
2022/06/05 16:12:33;;;;;;;3.05;2.85;;;27.20;1.00;;;;;;8399485;28;20201;-66
2022/06/05 16:17:13;;;;;;;3.67;3.30;;;27.30;1.00;;;;;;8399379;28;20205;-66
2022/06/05 16:21:21;;;;;;;5.10;2.72;;;27.10;1.00;;;;;;8405596;28;20198;-67
2022/06/05 16:25:31;;;;;;;3.35;3.05;;;26.90;1.00;;;;;;8410024;28;20171;-67
2022/06/05 16:29:39;;;;;;;5.43;2.95;;;26.80;1.00;;;;;;8420498;28;20211;-66
2022/06/05 16:33:46;;;;;;;4.53;2.50;;;26.70;1.00;;;;;;8406436;28;20184;-67
2022/06/05 16:37:57;;;;;;;3.20;2.65;;;26.60;1.00;;;;;;8411693;28;20174;-65
2022/06/05 16:42:02;;;;;;;3.83;2.60;;;26.70;1.00;;;;;;8405771;28;20322;-66
2022/06/05 16:46:13;;;;;;;2.88;2.67;;;26.70;1.00;;;;;;8400848;28;20234;-67
2022/06/05 16:50:14;;;;;;;2.70;2.45;;;26.60;1.00;;;;;;8405951;28;20168;-66
2022/06/05 16:54:32;;;;;;;5.07;2.70;;;26.60;1.00;;;;;;8404503;28;20192;-66
2022/06/05 16:58:44;;;;;;;3.00;2.80;;;26.60;1.00;;;;;;8408611;28;20215;-67
2022/06/05 17:02:56;;;;;;;2.95;2.63;;;26.40;1.00;;;;;;8403689;28;20213;-67
2022/06/05 17:07:29;;;;;;;2.80;2.60;;;26.30;1.00;;;;;;8401569;28;20172;-65
2022/06/05 17:11:37;;;;;;;3.13;2.92;;;26.20;1.00;;;;;;8396378;28;20184;-67
2022/06/05 17:15:41;;;;;;;3.10;2.80;;;26.20;1.00;;;;;;8401386;28;20471;-66
2022/06/05 17:19:49;;;;;;;3.15;2.60;;;26.40;1.00;;;;;;8408742;28;20190;-68
2022/06/05 17:23:53;;;;;;;2.97;2.78;;;26.70;1.00;;;;;;8405556;28;20236;-65
2022/06/05 17:28:02;;;;;;;3.00;2.80;;;26.90;1.00;;;;;;8398035;28;20216;-65
2022/06/05 17:32:13;;;;;;;4.75;3.15;;;27.00;1.00;;;;;;8407178;28;20250;-67
2022/06/05 17:36:25;;;;;;;4.25;2.50;;;26.90;1.00;;;;;;8408334;28;20211;-67
2022/06/05 17:40:50;;;;;;;2.95;2.65;;;26.90;1.00;;;;;;8400159;28;20190;-66
2022/06/05 17:45:29;;;;;;;3.33;2.83;;;26.70;1.00;;;;;;8405300;28;20468;-67
2022/06/05 17:50:03;;;;;;;3.38;2.63;;;26.40;1.00;;;;;;8415753;28;20173;-66
2022/06/05 17:54:15;;;;;;;4.38;2.90;;;26.20;1.00;;;;;;8421949;27;20185;-65
2022/06/05 17:58:24;;;;;;;3.38;3.08;;;26.10;1.00;;;;;;8408224;28;20181;-67
2022/06/05 18:02:27;;;;;;;3.17;2.88;;;26.00;1.00;;;;;;8407138;28;20204;-66
2022/06/05 18:06:37;;;;;;;3.55;3.25;;;25.80;1.00;;;;;;8414117;28;20177;-68
2022/06/05 18:10:43;;;;;;;4.53;3.15;;;25.60;1.00;;;;;;8413672;28;20178;-67
2022/06/05 18:14:50;;;;;;;3.40;3.10;;;25.30;1.00;;;;;;8405581;28;20272;-65
2022/06/05 18:18:52;;;;;;;3.20;2.90;;;25.00;1.00;;;;;;8399337;28;20191;-69
2022/06/05 18:22:55;;;;;;;3.37;2.97;;;25.00;1.00;;;;;;8402024;28;20885;-66
2022/06/05 18:27:05;;;;;;;3.23;2.93;;;25.00;1.00;;;;;;8401456;28;20211;-65
2022/06/05 18:31:09;;;;;;;3.10;2.80;;;25.00;1.00;;;;;;8409255;28;20252;-64
2022/06/05 18:35:17;;;;;;;4.77;4.20;;;25.10;1.00;;;;;;8401244;28;20193;-67
2022/06/05 18:39:22;;;;;;;4.47;4.03;;;25.00;1.00;;;;;;8401169;28;20208;-67
2022/06/05 18:43:37;;;;;;;4.23;3.83;;;24.80;1.00;;;;;;8401100;28;20221;-66
2022/06/05 18:47:44;;;;;;;5.10;3.50;;;24.30;1.00;;;;;;8405563;28;20212;-66
2022/06/05 18:51:50;;;;;;;4.83;3.80;;;23.90;1.00;;;;;;8401082;28;20270;-66
2022/06/05 18:55:51;;;;;;;4.17;3.87;;;23.40;1.00;;;;;;8397970;28;20430;-66
2022/06/05 19:00:00;;;;;;;4.43;3.90;;;23.10;1.00;;;;;;8408719;28;20177;-66
2022/06/05 19:04:07;;;;;;;6.17;3.93;;;22.80;1.00;;;;;;8397411;28;20208;-67
2022/06/05 19:08:31;;;;;;;6.53;5.00;;;22.50;1.00;;;;;;8405016;28;20543;-67
2022/06/05 19:13:10;;;;;;;8.67;6.97;;;22.20;1.00;;;;;;8406195;28;20200;-66
2022/06/05 19:17:26;;;;;;;5.13;4.63;;;21.90;1.00;;;;;;8404210;28;20196;-64
2022/06/05 19:21:53;;;;;;;4.87;3.83;;;21.70;1.20;;;;;;8408147;28;20243;-65
2022/06/05 19:25:54;;;;;;;4.40;3.90;;;21.40;30.50;;;;;;8400871;28;20188;-67
2022/06/05 19:29:59;;;;;;;4.07;3.70;;;21.10;59.60;;;;;;8401520;28;20204;-65
2022/06/05 19:34:27;;;;;;;4.73;3.97;;;20.90;69.70;;;;;;8401311;28;20193;-65
2022/06/05 19:38:30;;;;;;;4.70;4.30;;;20.70;74.00;;;;;;8405323;28;20196;-62
2022/06/05 19:42:37;;;;;;;4.90;3.90;;;20.70;62.70;;;;;;8396103;28;20338;-64
2022/06/05 19:46:39;;;;;;;4.47;4.07;;;20.70;60.40;;;;;;8396123;28;20193;-64
2022/06/05 19:51:02;;;;;;;4.30;3.90;;;20.60;56.10;;;;;;8400309;28;20199;-63
2022/06/05 19:55:21;;;;;;;4.67;4.27;;;20.60;66.00;;;;;;8382615;28;20193;-67
2022/06/05 19:59:30;;;;;;;4.80;4.33;;;20.50;77.50;;;;;;8405480;28;20242;-67
2022/06/05 20:03:31;;;;;;;6.60;4.40;;;20.40;88.60;;;;;;8400595;28;20219;-69
2022/06/05 20:07:37;;;;;;;6.73;4.20;;;20.40;99.80;;;;;;8402257;28;20181;-67
2022/06/05 20:11:48;;;;;;;8.57;3.60;;;20.20;99.90;;;;;;8398058;28;20181;-65
2022/06/05 20:15:54;;;;;;;4.87;3.80;;;20.10;99.90;;;;;;8402907;28;20196;-64
2022/06/05 20:20:12;;;;;;;3.73;3.43;;;19.90;99.90;;;;;;8394238;28;20189;-65
2022/06/05 20:24:20;;;;;;;5.73;4.00;;;19.80;99.90;;;;;;8399826;28;20827;-67
2022/06/05 20:28:23;;;;;;;4.40;4.00;;;19.60;99.90;;;;;;8396628;28;20228;-64
2022/06/05 20:32:25;;;;;;;4.23;3.83;;;19.50;99.90;;;;;;8398975;28;20195;-64
2022/06/05 20:36:28;;;;;;;4.30;3.90;;;19.50;99.90;;;;;;8403775;28;20534;-66
2022/06/05 20:40:35;;;;;;;4.03;3.70;;;19.40;99.90;;;;;;8401413;28;20188;-63
2022/06/05 20:45:00;;;;;;;4.20;3.80;;;19.20;99.90;;;;;;8400456;28;20249;-66
2022/06/05 20:49:12;;;;;;;4.93;4.53;;;18.90;99.90;;;;;;8399546;28;20256;-65
2022/06/05 20:53:23;;;;;;;3.70;3.40;;;18.80;99.90;;;;;;8398485;28;20196;-65
2022/06/05 20:57:37;;;;;;;4.70;4.30;;;18.60;99.90;;;;;;8398485;28;20185;-65
2022/06/05 21:01:53;;;;;;;4.23;3.83;;;18.60;99.90;;;;;;8406802;28;20279;-68
2022/06/05 21:10:14;;;;;;;4.10;3.70;;;18.40;99.90;;;;;;8399378;28;20195;-66
2022/06/05 21:18:41;;;;;;;3.97;3.57;;;18.20;99.90;;;;;;8397450;28;20200;-65
2022/06/05 21:22:45;;;;;;;4.73;4.30;;;18.10;1.00;;;;;;8401600;28;20616;-66
2022/06/05 21:26:48;;;;;;;4.67;4.27;;;18.00;1.00;;;;;;8392801;28;20276;-67
2022/06/05 21:30:53;;;;;;;4.40;4.00;;;17.90;1.00;;;;;;8400377;28;20202;-67
2022/06/05 21:34:56;;;;;;;5.03;4.57;;;17.80;1.00;;;;;;8402181;28;20228;-66
2022/06/05 21:39:16;;;;;;;4.40;4.00;;;17.70;1.00;;;;;;8396405;28;20196;-67
2022/06/05 21:43:25;;;;;;;4.67;4.17;;;17.60;1.00;;;;;;8391134;28;20610;-67
2022/06/05 21:47:26;;;;;;;4.53;4.13;;;17.40;1.00;;;;;;8393857;28;20695;-66
2022/06/05 21:51:31;;;;;;;4.70;4.30;;;17.20;1.00;;;;;;8401047;28;20541;-66
2022/06/05 21:55:34;;;;;;;4.43;4.07;;;17.10;50.80;;;;;;8395624;28;20204;-67
2022/06/05 21:59:35;;;;;;;4.60;4.20;;;16.90;99.90;;;;;;8396077;28;20181;-67
2022/06/05 22:03:38;;;;;;;5.17;4.77;;;16.80;99.90;;;;;;8390443;28;20205;-67
2022/06/05 22:07:39;;;;;;;5.00;4.60;;;16.70;99.90;;;;;;8400411;28;20600;-68
2022/06/05 22:11:42;;;;;;;4.30;4.00;;;16.60;99.90;;;;;;8399342;28;20189;-68